Time;durP1;ratioP1;P1;durP2;ratioP2;P2;SDS_P1;SDS_P2;PMS_P1;PMS_P2;Temp;Humidity;BMP_temperature;BMP_pressure;BME280_temperature;BME280_humidity;BME280_pressure;Samples;Min_cycle;Max_cycle;Signal;HPM_P1;HPM_P2
2023/10/17 00:00:27;;;;;;;4.40;3.50;;;;;;;7.44;82.03;98329.47;4163147;28;20769;-86
2023/10/17 00:02:32;;;;;;;4.80;4.20;;;;;;;7.46;82.36;98325.03;4177343;28;20691;-86
2023/10/17 00:04:38;;;;;;;4.55;3.80;;;;;;;7.48;81.84;98327.47;4209072;28;20301;-85
2023/10/17 00:06:42;;;;;;;4.07;3.47;;;;;;;7.48;82.29;98315.44;4172645;28;20227;-86
2023/10/17 00:08:50;;;;;;;5.10;3.65;;;;;;;7.44;81.38;98314.75;4177155;28;20209;-86
2023/10/17 00:10:58;;;;;;;5.43;3.65;;;;;;;7.41;81.91;98312.31;4169232;28;20202;-86
2023/10/17 00:13:25;;;;;;;4.30;3.67;;;;;;;7.38;81.08;98314.25;4170883;28;20202;-86
2023/10/17 00:15:28;;;;;;;4.90;3.80;;;;;;;7.35;80.61;98310.06;4209681;28;20208;-86
2023/10/17 00:17:33;;;;;;;5.53;3.60;;;;;;;7.30;81.75;98299.06;4177279;28;20557;-86
2023/10/17 00:19:37;;;;;;;5.20;3.95;;;;;;;7.27;81.48;98296.63;4169242;28;20241;-86
2023/10/17 00:21:40;;;;;;;5.40;3.60;;;;;;;7.25;80.78;98287.28;4208417;28;20201;-86
2023/10/17 00:23:44;;;;;;;5.95;3.67;;;;;;;7.14;81.63;98286.97;4176284;28;20201;-86
2023/10/17 00:25:49;;;;;;;4.18;3.40;;;;;;;7.08;81.73;98282.09;4170154;28;20214;-86
2023/10/17 00:27:54;;;;;;;5.00;3.63;;;;;;;7.09;82.27;98282.03;4172913;28;20643;-86
2023/10/17 00:30:00;;;;;;;4.75;3.75;;;;;;;7.09;81.94;98276.84;4159721;28;20282;-86
2023/10/17 00:32:08;;;;;;;4.95;3.75;;;;;;;7.10;81.80;98270.75;4166579;28;20264;-86
2023/10/17 00:34:15;;;;;;;5.30;3.30;;;;;;;7.11;82.74;98262.06;4156608;28;20333;-86
2023/10/17 00:36:19;;;;;;;4.70;3.80;;;;;;;7.10;81.70;98259.56;4169896;28;20235;-85
2023/10/17 00:38:23;;;;;;;3.80;3.40;;;;;;;7.09;82.29;98256.09;4195127;28;20246;-86
2023/10/17 00:40:34;;;;;;;5.47;3.40;;;;;;;7.08;82.65;98254.44;4174860;28;20224;-88
2023/10/17 00:42:41;;;;;;;4.53;3.40;;;;;;;7.11;81.82;98249.09;4154628;28;20201;-88
2023/10/17 00:44:47;;;;;;;4.55;3.55;;;;;;;7.15;81.34;98242.81;4155652;28;20196;-86
2023/10/17 00:46:49;;;;;;;3.30;2.75;;;;;;;7.17;82.30;98238.41;4193393;28;20193;-86
2023/10/17 00:48:53;;;;;;;4.57;3.40;;;;;;;7.17;82.14;98235.81;4189681;28;20255;-86
2023/10/17 00:51:06;;;;;;;5.00;3.88;;;;;;;7.13;82.00;98238.66;4160918;28;20654;-85
2023/10/17 00:53:11;;;;;;;7.25;5.22;;;;;;;7.01;82.45;98235.88;4175363;28;20213;-86
2023/10/17 00:55:14;;;;;;;5.60;5.00;;;;;;;6.93;83.17;98227.63;4189553;28;20256;-86
2023/10/17 00:57:17;;;;;;;5.72;4.90;;;;;;;6.86;83.12;98231.47;4169339;28;20212;-86
2023/10/17 00:59:24;;;;;;;5.35;4.43;;;;;;;6.80;83.91;98224.00;4170870;28;20205;-86
2023/10/17 01:01:29;;;;;;;7.13;4.47;;;;;;;6.78;82.92;98220.63;4172573;28;20672;-86
2023/10/17 01:03:33;;;;;;;5.75;4.68;;;;;;;6.74;83.58;98221.72;4159378;28;20596;-86
2023/10/17 01:05:57;;;;;;;6.03;4.50;;;;;;;6.71;83.43;98224.47;4167269;28;20680;-86
2023/10/17 01:08:02;;;;;;;6.72;5.50;;;;;;;6.64;83.96;98229.09;4170316;28;20208;-86
2023/10/17 01:10:10;;;;;;;12.10;7.80;;;;;;;6.58;83.97;98220.81;4188426;28;20200;-89
2023/10/17 01:12:13;;;;;;;16.02;9.48;;;;;;;6.52;84.42;98226.31;4172296;28;20227;-89
2023/10/17 01:14:19;;;;;;;10.75;7.57;;;;;;;6.47;84.94;98228.28;4159116;28;20226;-90
2023/10/17 01:16:24;;;;;;;9.68;6.13;;;;;;;6.43;84.61;98221.59;4173386;28;20198;-90
2023/10/17 01:18:31;;;;;;;7.25;5.72;;;;;;;6.36;84.51;98220.22;4172994;28;20217;-90
2023/10/17 01:20:40;;;;;;;6.32;4.85;;;;;;;6.30;84.80;98215.34;4159763;28;20306;-90
2023/10/17 01:22:44;;;;;;;6.03;4.95;;;;;;;6.26;85.12;98213.00;4210386;28;20290;-90
2023/10/17 01:24:49;;;;;;;8.65;4.70;;;;;;;6.21;85.57;98212.38;4159093;28;20719;-90
2023/10/17 01:26:52;;;;;;;5.63;4.47;;;;;;;6.16;85.63;98217.78;4169397;28;20209;-88
2023/10/17 01:28:59;;;;;;;6.70;4.90;;;;;;;6.13;86.24;98222.25;4206409;28;20625;-89
2023/10/17 01:31:03;;;;;;;5.07;4.30;;;;;;;6.12;86.14;98228.38;4164658;28;20269;-89
2023/10/17 01:33:08;;;;;;;6.80;4.90;;;;;;;6.11;86.44;98224.09;4164674;28;20216;-90
2023/10/17 01:35:12;;;;;;;6.35;4.63;;;;;;;6.06;86.33;98225.22;4195118;28;20220;-90
2023/10/17 01:37:15;;;;;;;6.88;4.30;;;;;;;6.04;86.62;98220.13;4189640;28;20209;-91
2023/10/17 01:39:20;;;;;;;7.53;4.68;;;;;;;5.99;86.95;98216.91;4182227;28;20366;-90
2023/10/17 01:41:25;;;;;;;6.35;4.75;;;;;;;5.99;86.52;98213.50;4150363;28;20233;-90
2023/10/17 01:43:36;;;;;;;6.10;4.82;;;;;;;5.98;86.52;98214.41;4168069;28;20202;-90
2023/10/17 01:45:38;;;;;;;5.82;4.75;;;;;;;6.00;86.46;98221.19;4207081;28;20207;-90
2023/10/17 01:47:43;;;;;;;6.70;5.05;;;;;;;5.99;86.78;98229.84;4191518;28;20200;-89
2023/10/17 01:49:47;;;;;;;5.80;4.40;;;;;;;6.02;86.70;98219.38;4153020;28;20209;-90
2023/10/17 01:51:50;;;;;;;6.50;4.30;;;;;;;5.95;87.34;98222.31;4175898;28;20210;-91
2023/10/17 01:53:54;;;;;;;5.25;4.10;;;;;;;5.95;87.32;98224.91;4177215;28;20206;-89
2023/10/17 01:56:06;;;;;;;5.65;4.68;;;;;;;5.92;86.76;98219.88;4184700;28;20744;-88
2023/10/17 01:58:15;;;;;;;5.38;4.07;;;;;;;5.92;86.37;98220.72;4194440;28;20229;-91
2023/10/17 02:00:29;;;;;;;5.25;4.35;;;;;;;5.89;87.03;98215.69;4191415;28;20259;-89
2023/10/17 02:02:32;;;;;;;6.82;4.53;;;;;;;5.88;87.35;98210.56;4157877;28;20294;-89
2023/10/17 02:04:36;;;;;;;6.35;3.90;;;;;;;5.87;88.11;98208.91;4172933;28;20197;-90
2023/10/17 02:06:39;;;;;;;9.15;3.78;;;;;;;5.86;87.19;98204.66;4159523;28;20658;-90
2023/10/17 02:08:44;;;;;;;5.18;3.80;;;;;;;5.93;87.31;98211.22;4178590;28;20226;-88
2023/10/17 02:10:47;;;;;;;4.25;3.47;;;;;;;5.99;87.48;98209.16;4195544;28;20207;-90
2023/10/17 02:12:51;;;;;;;5.68;3.63;;;;;;;6.07;86.80;98217.38;4160027;28;20206;-90
2023/10/17 02:14:58;;;;;;;4.28;3.70;;;;;;;6.11;85.98;98216.34;4161023;28;20197;-90
2023/10/17 02:17:01;;;;;;;4.22;3.28;;;;;;;6.13;86.41;98223.13;4175792;28;20213;-90
2023/10/17 02:19:06;;;;;;;5.22;3.13;;;;;;;6.14;86.19;98216.19;4168419;28;20270;-89
2023/10/17 02:21:12;;;;;;;4.47;3.47;;;;;;;6.21;86.17;98220.16;4175830;28;20318;-91
2023/10/17 02:23:19;;;;;;;4.25;2.90;;;;;;;6.25;86.04;98214.72;4173233;28;20615;-89
2023/10/17 02:25:27;;;;;;;3.72;3.05;;;;;;;6.31;85.56;98219.59;4173453;28;20201;-88
2023/10/17 02:27:31;;;;;;;4.45;3.50;;;;;;;6.37;85.57;98215.88;4179960;28;20208;-90
2023/10/17 02:29:39;;;;;;;4.90;2.95;;;;;;;6.44;85.22;98218.09;4161024;28;20199;-89
2023/10/17 02:31:45;;;;;;;5.25;3.25;;;;;;;6.46;85.18;98211.06;4211525;28;20223;-90
2023/10/17 02:33:48;;;;;;;4.38;3.25;;;;;;;6.51;85.61;98214.28;4191427;28;20316;-89
2023/10/17 02:35:57;;;;;;;4.80;3.30;;;;;;;6.53;84.74;98214.22;4153107;28;20708;-89
2023/10/17 02:38:03;;;;;;;6.57;3.63;;;;;;;6.56;84.47;98222.66;4154754;28;20203;-89
2023/10/17 02:40:19;;;;;;;3.65;2.88;;;;;;;6.58;84.44;98226.00;4181001;28;20206;-91
2023/10/17 02:42:22;;;;;;;5.20;3.45;;;;;;;6.59;84.52;98223.31;4158402;28;20226;-87
2023/10/17 02:44:26;;;;;;;5.78;3.55;;;;;;;6.60;84.39;98222.44;4209624;28;20206;-90
2023/10/17 02:46:30;;;;;;;6.00;4.10;;;;;;;6.60;83.81;98219.00;4189182;28;20215;-90
2023/10/17 02:48:41;;;;;;;5.85;3.50;;;;;;;6.53;84.02;98220.22;4175167;28;20288;-89
2023/10/17 02:50:58;;;;;;;4.03;3.60;;;;;;;6.50;84.19;98216.97;4160821;28;20226;-90
2023/10/17 02:53:04;;;;;;;3.80;3.38;;;;;;;6.50;84.53;98219.53;4174231;28;20281;-90
2023/10/17 02:55:12;;;;;;;4.53;3.55;;;;;;;6.49;84.57;98225.63;4175143;28;20264;-90
2023/10/17 02:57:16;;;;;;;4.70;3.15;;;;;;;6.52;84.66;98222.88;4155873;28;20306;-90
2023/10/17 02:59:21;;;;;;;4.38;3.60;;;;;;;6.56;84.55;98227.84;4202279;28;20625;-89
2023/10/17 03:01:26;;;;;;;4.60;3.50;;;;;;;6.55;84.05;98231.34;4208651;28;20226;-90
2023/10/17 03:03:30;;;;;;;4.30;3.33;;;;;;;6.59;84.39;98230.28;4165242;28;20218;-90
2023/10/17 03:05:35;;;;;;;4.10;2.80;;;;;;;6.61;84.14;98228.44;4175385;28;20224;-90
2023/10/17 03:07:39;;;;;;;4.50;3.35;;;;;;;6.62;83.99;98237.88;4174859;28;20291;-88
2023/10/17 03:09:43;;;;;;;3.47;2.95;;;;;;;6.65;83.87;98237.75;4155413;28;20566;-89
2023/10/17 03:11:51;;;;;;;4.80;3.38;;;;;;;6.63;83.90;98235.22;4160342;28;20290;-90
2023/10/17 03:13:56;;;;;;;5.57;3.55;;;;;;;6.61;83.68;98233.63;4177402;28;20316;-91
2023/10/17 03:16:15;;;;;;;4.28;3.50;;;;;;;6.60;84.23;98235.38;4172825;28;20591;-90
2023/10/17 03:18:22;;;;;;;5.55;3.60;;;;;;;6.61;84.01;98225.84;4188235;28;20250;-90
2023/10/17 03:20:36;;;;;;;4.28;3.85;;;;;;;6.64;84.49;98225.69;4160205;28;20210;-90
2023/10/17 03:22:41;;;;;;;6.03;3.47;;;;;;;6.69;83.95;98221.09;4154285;28;21602;-89
2023/10/17 03:24:44;;;;;;;4.50;3.20;;;;;;;6.70;83.57;98226.19;4178087;28;20202;-89
2023/10/17 03:26:55;;;;;;;6.03;3.00;;;;;;;6.71;83.83;98220.13;4158096;28;20297;-91
2023/10/17 03:29:00;;;;;;;4.15;3.15;;;;;;;6.73;83.76;98214.84;4207680;28;20201;-85
2023/10/17 03:31:10;;;;;;;5.90;2.95;;;;;;;6.73;83.66;98225.22;4159982;28;20226;-85
2023/10/17 03:33:15;;;;;;;3.90;3.15;;;;;;;6.75;84.00;98218.19;4179196;28;20215;-85
2023/10/17 03:35:20;;;;;;;5.90;3.47;;;;;;;6.76;83.73;98214.69;4179125;28;20207;-86
2023/10/17 03:37:28;;;;;;;5.95;3.80;;;;;;;6.78;83.87;98218.03;4159612;28;21879;-86
2023/10/17 03:39:45;;;;;;;5.03;3.10;;;;;;;6.82;84.10;98216.97;4177179;28;20262;-86
2023/10/17 03:41:49;;;;;;;5.03;3.25;;;;;;;6.82;83.86;98210.03;4192139;28;20605;-86
2023/10/17 03:44:01;;;;;;;4.78;3.40;;;;;;;6.82;83.50;98207.44;4172593;28;20288;-85
2023/10/17 03:46:05;;;;;;;3.83;3.17;;;;;;;6.87;83.72;98214.97;4185464;28;20228;-86
2023/10/17 03:48:13;;;;;;;5.95;3.88;;;;;;;6.92;83.23;98225.97;4191768;28;20214;-85
2023/10/17 03:50:31;;;;;;;6.15;3.40;;;;;;;6.93;83.17;98230.22;4176398;28;20557;-86
2023/10/17 03:52:35;;;;;;;4.95;3.80;;;;;;;6.86;83.00;98231.47;4185090;28;20195;-86
2023/10/17 03:54:43;;;;;;;7.57;4.68;;;;;;;6.72;82.85;98228.72;4160672;28;20203;-86
2023/10/17 03:56:49;;;;;;;5.85;4.88;;;;;;;6.65;82.96;98229.97;4174894;28;20288;-86
2023/10/17 03:58:57;;;;;;;6.07;4.45;;;;;;;6.54;83.27;98231.41;4175640;28;20755;-86
2023/10/17 04:01:06;;;;;;;5.20;4.30;;;;;;;6.46;83.50;98233.56;4171647;28;20673;-85
2023/10/17 04:03:19;;;;;;;8.75;4.95;;;;;;;6.39;83.72;98232.16;4205879;28;20246;-86
2023/10/17 04:05:23;;;;;;;6.07;4.45;;;;;;;6.32;84.29;98234.22;4177452;28;20212;-86
2023/10/17 04:07:29;;;;;;;5.80;4.40;;;;;;;6.27;84.83;98223.28;4156643;28;20201;-86
2023/10/17 04:09:37;;;;;;;6.40;4.63;;;;;;;6.23;85.03;98221.75;4175113;28;20208;-86
2023/10/17 04:11:43;;;;;;;7.28;4.55;;;;;;;6.18;85.13;98228.91;4159008;28;20207;-88
2023/10/17 04:13:48;;;;;;;7.22;4.50;;;;;;;6.15;85.04;98217.88;4159511;28;20213;-88
2023/10/17 04:15:52;;;;;;;5.88;4.30;;;;;;;6.15;85.03;98210.94;4154193;28;20742;-88
2023/10/17 04:17:58;;;;;;;6.07;3.95;;;;;;;6.10;85.80;98215.50;4175755;28;20231;-86
2023/10/17 04:20:11;;;;;;;5.93;4.95;;;;;;;6.11;85.72;98204.22;4156604;28;20300;-85
2023/10/17 04:22:17;;;;;;;7.50;5.03;;;;;;;6.11;85.88;98200.78;4154251;28;20231;-86
2023/10/17 04:24:32;;;;;;;6.30;4.90;;;;;;;6.09;86.00;98195.69;4178277;28;20298;-86
2023/10/17 04:26:35;;;;;;;5.63;4.30;;;;;;;6.06;85.75;98194.16;4191973;28;20231;-86
2023/10/17 04:28:41;;;;;;;5.53;4.38;;;;;;;6.10;86.01;98187.03;4176873;28;20686;-86
2023/10/17 04:30:47;;;;;;;5.60;4.50;;;;;;;6.18;86.58;98189.25;4175715;28;20221;-86
2023/10/17 04:32:52;;;;;;;5.10;4.55;;;;;;;6.21;86.62;98179.56;4146333;28;20212;-85
2023/10/17 04:34:56;;;;;;;5.00;4.22;;;;;;;6.26;86.04;98174.16;4168318;28;20204;-86
2023/10/17 04:37:03;;;;;;;4.75;3.80;;;;;;;6.31;85.72;98178.16;4188933;28;20290;-86
2023/10/17 04:39:18;;;;;;;6.07;3.70;;;;;;;6.35;85.50;98181.47;4177198;28;20209;-91
2023/10/17 04:41:40;;;;;;;5.88;3.47;;;;;;;6.40;85.37;98177.72;4174264;28;20192;-91
2023/10/17 04:43:45;;;;;;;4.90;3.45;;;;;;;6.43;85.96;98174.97;4190905;28;20317;-90
2023/10/17 04:45:55;;;;;;;4.63;3.75;;;;;;;6.48;85.68;98172.13;4184849;28;20211;-91
2023/10/17 04:48:10;;;;;;;4.90;3.85;;;;;;;6.50;85.33;98172.91;4157947;28;20226;-91
2023/10/17 04:50:16;;;;;;;5.18;4.60;;;;;;;6.47;85.12;98171.31;4187857;28;20304;-91
2023/10/17 04:52:20;;;;;;;7.78;4.53;;;;;;;6.48;85.23;98170.41;4158470;28;20233;-91
2023/10/17 04:54:31;;;;;;;6.65;4.60;;;;;;;6.43;85.56;98167.19;4205332;28;20211;-90
2023/10/17 04:56:52;;;;;;;7.20;4.72;;;;;;;6.39;85.27;98168.28;4174587;28;20269;-90
2023/10/17 04:58:57;;;;;;;5.47;4.20;;;;;;;6.36;85.94;98170.16;4167310;28;20199;-90
2023/10/17 05:01:11;;;;;;;5.47;4.28;;;;;;;6.34;86.24;98162.47;4172428;28;20202;-91
2023/10/17 05:03:20;;;;;;;5.03;4.53;;;;;;;6.33;85.96;98163.41;4170254;28;20809;-90
2023/10/17 05:05:45;;;;;;;7.10;4.40;;;;;;;6.31;86.38;98164.41;4174777;28;20212;-90
2023/10/17 05:08:11;;;;;;;8.23;5.43;;;;;;;6.32;86.63;98156.56;4169684;28;20205;-90
2023/10/17 06:18:42;;;;;;;9.30;5.22;;;;;;;6.46;87.85;98205.88;4120880;28;20597;-85
2023/10/17 06:23:24;;;;;;;6.30;4.28;;;;;;;6.56;87.83;98208.88;4170918;28;20218;-87
2023/10/17 06:28:25;;;;;;;5.22;4.38;;;;;;;6.61;87.61;98213.75;4178828;28;20211;-86
2023/10/17 06:30:33;;;;;;;5.28;4.32;;;;;;;6.64;87.99;98213.56;4192050;28;20229;-86
2023/10/17 06:33:03;;;;;;;6.72;4.40;;;;;;;6.69;87.71;98219.38;4204870;28;20203;-86
2023/10/17 06:35:20;;;;;;;5.32;4.78;;;;;;;6.71;87.75;98211.50;4161059;28;20741;-86
2023/10/17 06:37:30;;;;;;;5.65;4.78;;;;;;;6.74;87.51;98219.97;4180387;28;20209;-86
2023/10/17 06:39:45;;;;;;;6.22;5.30;;;;;;;6.79;88.05;98215.38;4181668;28;20198;-87
2023/10/17 06:41:50;;;;;;;5.63;4.80;;;;;;;6.84;88.09;98210.81;4162147;28;20204;-87
2023/10/17 06:43:54;;;;;;;9.77;4.63;;;;;;;6.88;87.84;98209.72;4163131;28;20663;-86
2023/10/17 06:46:00;;;;;;;10.63;4.45;;;;;;;6.90;87.62;98205.31;4185157;28;20206;-86
2023/10/17 06:48:08;;;;;;;5.30;4.30;;;;;;;6.95;86.87;98216.28;4180090;28;20271;-86
2023/10/17 06:50:17;;;;;;;5.65;4.72;;;;;;;6.99;87.78;98222.13;4178858;28;20202;-86
2023/10/17 06:52:19;;;;;;;7.47;5.07;;;;;;;7.04;87.83;98237.34;4185941;28;20204;-86
2023/10/17 06:54:26;;;;;;;5.70;4.80;;;;;;;7.06;86.95;98232.91;4183643;28;20615;-86
2023/10/17 06:56:31;;;;;;;6.85;5.03;;;;;;;7.11;87.82;98224.91;4195479;28;20205;-86
2023/10/17 06:58:35;;;;;;;7.10;5.75;;;;;;;7.16;86.96;98228.94;4167496;28;20237;-90
2023/10/17 07:00:51;;;;;;;6.35;4.85;;;;;;;7.22;87.78;98228.63;4187730;28;20280;-90
2023/10/17 07:02:57;;;;;;;10.95;5.78;;;;;;;7.26;87.96;98230.16;4163800;28;20206;-90
2023/10/17 07:05:01;;;;;;;7.15;4.85;;;;;;;7.30;87.36;98229.03;4196666;28;20316;-89
2023/10/17 07:07:05;;;;;;;6.75;5.25;;;;;;;7.33;87.99;98226.28;4182779;28;20305;-88
2023/10/17 07:09:17;;;;;;;5.97;5.00;;;;;;;7.39;87.80;98236.34;4181765;28;20212;-91
2023/10/17 07:11:29;;;;;;;7.25;5.88;;;;;;;7.48;87.88;98224.63;4176869;28;20210;-90
2023/10/17 07:13:55;;;;;;;8.30;5.47;;;;;;;7.52;87.74;98221.78;4195894;28;20193;-89
2023/10/17 07:16:04;;;;;;;9.77;6.10;;;;;;;7.57;87.18;98212.00;4178120;28;20661;-90
2023/10/17 07:21:14;;;;;;;7.68;5.68;;;;;;;7.66;85.88;98201.13;4177303;28;20213;-91
2023/10/17 07:22:53;;;;;;;8.07;5.03;;;;;;;7.70;86.70;98202.63;4188789;28;20205;-90
2023/10/17 07:25:01;;;;;;;7.25;5.85;;;;;;;7.72;85.60;98201.59;4204705;28;20247;-88
2023/10/17 07:27:11;;;;;;;10.55;7.60;;;;;;;7.78;86.87;98200.44;4206302;28;20207;-89
2023/10/17 07:29:15;;;;;;;12.32;9.07;;;;;;;7.84;86.06;98200.09;4187294;28;20200;-89
2023/10/17 07:31:20;;;;;;;7.93;6.28;;;;;;;7.89;85.43;98201.50;4188887;28;20212;-88
2023/10/17 07:33:23;;;;;;;10.63;6.80;;;;;;;7.99;86.53;98210.47;4205884;28;20203;-89
2023/10/17 07:35:30;;;;;;;10.73;6.30;;;;;;;8.09;85.42;98215.03;4176554;28;20211;-88
2023/10/17 07:37:39;;;;;;;8.57;6.00;;;;;;;8.14;85.40;98209.63;4176212;28;20227;-89
2023/10/17 07:39:54;;;;;;;9.38;6.35;;;;;;;8.17;83.55;98210.28;4194191;28;20197;-89
2023/10/17 07:41:58;;;;;;;8.68;6.22;;;;;;;8.22;83.71;98210.84;4179027;28;20227;-87
2023/10/17 07:44:09;;;;;;;8.55;6.32;;;;;;;8.30;84.09;98211.25;4173392;28;20237;-88
2023/10/17 07:46:18;;;;;;;11.70;6.88;;;;;;;8.40;83.82;98221.97;4159969;28;20748;-91
2023/10/17 07:48:21;;;;;;;10.55;6.45;;;;;;;8.47;83.47;98214.53;4177716;28;20318;-88
2023/10/17 07:50:25;;;;;;;10.98;7.00;;;;;;;8.54;81.85;98221.06;4178265;28;20858;-89
2023/10/17 07:52:30;;;;;;;9.82;6.75;;;;;;;8.61;81.94;98222.38;4173653;28;20209;-87
2023/10/17 07:54:38;;;;;;;8.55;6.03;;;;;;;8.64;81.69;98213.56;4160723;28;20652;-86
2023/10/17 07:56:50;;;;;;;10.07;6.63;;;;;;;8.70;82.47;98214.03;4151693;28;20673;-86
2023/10/17 07:59:04;;;;;;;9.55;6.43;;;;;;;8.80;81.65;98220.38;4172810;28;20201;-86
2023/10/17 08:01:14;;;;;;;8.70;6.85;;;;;;;8.84;82.05;98227.06;4156820;28;20214;-86
2023/10/17 08:03:19;;;;;;;9.55;5.85;;;;;;;8.86;81.20;98221.78;4176470;28;20268;-86
2023/10/17 08:05:25;;;;;;;10.23;7.05;;;;;;;8.90;82.11;98218.06;4194229;28;20227;-86
2023/10/17 08:07:29;;;;;;;8.23;6.40;;;;;;;8.93;80.66;98219.56;4178513;28;20297;-87
2023/10/17 08:09:40;;;;;;;11.52;7.18;;;;;;;8.98;80.70;98207.09;4194257;28;20292;-88
2023/10/17 08:11:46;;;;;;;12.02;7.13;;;;;;;9.07;81.26;98216.97;4180850;28;20198;-87
2023/10/17 08:13:48;;;;;;;10.95;7.03;;;;;;;9.06;79.91;98204.03;4175429;28;20485;-87
2023/10/17 08:15:53;;;;;;;8.75;6.40;;;;;;;9.09;80.86;98209.06;4207622;28;20224;-87
2023/10/17 08:17:59;;;;;;;10.15;7.18;;;;;;;9.12;80.70;98207.09;4177676;28;20210;-87
2023/10/17 08:20:08;;;;;;;13.77;7.32;;;;;;;9.15;81.11;98208.69;4177763;28;20272;-87
2023/10/17 08:22:17;;;;;;;9.30;6.47;;;;;;;9.22;80.51;98205.63;4179220;28;20264;-87
2023/10/17 08:24:26;;;;;;;8.93;6.20;;;;;;;9.25;79.64;98208.03;4210236;28;20626;-87
2023/10/17 08:26:31;;;;;;;10.90;7.47;;;;;;;9.27;80.12;98206.16;4159954;28;20641;-87
2023/10/17 08:28:37;;;;;;;10.60;7.88;;;;;;;9.21;80.79;98193.53;4172433;28;20215;-87
2023/10/17 08:30:40;;;;;;;10.55;7.32;;;;;;;9.28;80.46;98194.84;4176021;28;20261;-86
2023/10/17 08:32:55;;;;;;;11.47;7.07;;;;;;;9.39;80.94;98184.59;4203753;28;20782;-86
2023/10/17 08:35:07;;;;;;;8.95;7.00;;;;;;;9.35;80.34;98195.28;4178116;28;21013;-85
2023/10/17 08:37:17;;;;;;;11.57;7.23;;;;;;;9.44;79.88;98203.34;4174021;28;20575;-86
2023/10/17 08:39:51;;;;;;;10.52;7.20;;;;;;;9.53;80.38;98190.63;4158860;28;21205;-87
2023/10/17 08:41:57;;;;;;;9.30;6.53;;;;;;;9.56;80.24;98193.03;4175447;28;20923;-86
2023/10/17 08:43:59;;;;;;;11.57;6.88;;;;;;;9.59;79.94;98203.25;4160835;28;20644;-86
2023/10/17 08:46:07;;;;;;;9.83;7.27;;;;;;;9.68;80.80;98209.66;4203367;28;20225;-86
2023/10/17 08:48:10;;;;;;;11.82;7.30;;;;;;;9.77;80.06;98220.31;4195272;28;20623;-86
2023/10/17 08:50:16;;;;;;;10.10;6.88;;;;;;;9.74;79.01;98211.84;4152682;28;20686;-87
2023/10/17 08:52:22;;;;;;;10.00;7.57;;;;;;;9.74;79.74;98214.47;4206729;28;20214;-87
2023/10/17 08:54:28;;;;;;;10.10;6.90;;;;;;;9.72;78.99;98209.34;4208538;28;20633;-88
2023/10/17 08:56:36;;;;;;;11.27;6.93;;;;;;;9.73;79.55;98203.22;4176486;28;20620;-87
2023/10/17 08:58:43;;;;;;;8.90;7.00;;;;;;;9.79;79.78;98208.03;4173703;28;20657;-87
2023/10/17 09:00:49;;;;;;;9.30;6.80;;;;;;;9.90;79.52;98211.63;4172450;28;21285;-88
2023/10/17 09:03:01;;;;;;;11.15;7.95;;;;;;;9.96;80.10;98213.88;4171725;28;20736;-87
2023/10/17 09:05:13;;;;;;;9.93;6.93;;;;;;;10.01;79.42;98208.38;4156467;28;20230;-88
2023/10/17 09:07:31;;;;;;;9.20;7.40;;;;;;;10.09;79.18;98206.13;4165278;28;20680;-87
2023/10/17 09:09:34;;;;;;;11.27;8.07;;;;;;;10.13;79.14;98208.44;4170601;28;21238;-88
2023/10/17 09:11:41;;;;;;;12.20;8.30;;;;;;;10.20;78.81;98209.69;4173412;28;20691;-88
2023/10/17 09:14:14;;;;;;;10.23;7.10;;;;;;;10.28;79.36;98204.81;4177686;28;21045;-88
2023/10/17 09:16:16;;;;;;;9.67;7.83;;;;;;;10.30;78.44;98200.34;4166655;28;20689;-88
2023/10/17 09:18:22;;;;;;;11.63;8.20;;;;;;;10.29;78.82;98197.84;4173323;28;20666;-87
2023/10/17 09:20:34;;;;;;;12.33;8.47;;;;;;;10.33;78.84;98205.38;4200402;28;20611;-88
2023/10/17 09:22:40;;;;;;;10.83;8.60;;;;;;;10.43;78.74;98207.28;4177524;28;21219;-89
2023/10/17 09:24:46;;;;;;;13.73;9.50;;;;;;;10.49;78.34;98200.78;4174805;28;21046;-87
2023/10/17 09:26:51;;;;;;;10.70;7.80;;;;;;;10.46;78.43;98195.78;4177695;28;20612;-87
2023/10/17 09:29:01;;;;;;;13.33;8.83;;;;;;;10.46;78.71;98195.78;4173648;28;21098;-87
2023/10/17 09:31:07;;;;;;;10.93;8.80;;;;;;;10.49;78.74;98195.56;4161166;28;21120;-88
2023/10/17 09:33:30;;;;;;;12.88;7.97;;;;;;;10.51;79.04;98188.50;4195277;28;20611;-87
2023/10/17 09:35:34;;;;;;;11.30;8.47;;;;;;;10.62;79.13;98194.66;4176061;28;20202;-87
2023/10/17 09:37:41;;;;;;;11.70;8.43;;;;;;;10.74;79.02;98193.84;4165390;28;21222;-87
2023/10/17 09:39:47;;;;;;;9.77;8.27;;;;;;;10.74;78.06;98193.84;4180183;28;20633;-88
2023/10/17 09:41:49;;;;;;;10.87;8.37;;;;;;;10.84;77.95;98190.50;4178008;28;20621;-87
2023/10/17 09:43:53;;;;;;;12.17;7.90;;;;;;;10.80;77.23;98181.22;4165604;28;20720;-88
2023/10/17 09:46:02;;;;;;;13.20;8.47;;;;;;;10.80;78.64;98179.56;4182833;28;20715;-87
2023/10/17 09:48:07;;;;;;;12.30;9.30;;;;;;;10.85;78.58;98179.16;4156309;28;20638;-87
2023/10/17 09:50:16;;;;;;;10.23;8.00;;;;;;;10.92;78.98;98174.34;4161336;28;20624;-87
2023/10/17 09:52:20;;;;;;;12.97;8.80;;;;;;;10.93;78.69;98171.63;4179998;28;21520;-87
2023/10/17 09:54:25;;;;;;;12.20;8.60;;;;;;;10.94;79.07;98182.88;4177032;28;20650;-87
2023/10/17 09:56:32;;;;;;;12.77;8.87;;;;;;;11.01;78.86;98177.16;4155344;28;20633;-87
2023/10/17 09:58:37;;;;;;;15.40;8.97;;;;;;;11.00;78.35;98172.84;4178682;28;20640;-87
2023/10/17 10:00:44;;;;;;;12.67;9.40;;;;;;;11.06;79.27;98177.66;4177633;28;20628;-88
2023/10/17 10:02:49;;;;;;;14.00;9.90;;;;;;;11.19;78.08;98182.88;4176859;28;20727;-87
2023/10/17 10:05:20;;;;;;;12.00;8.97;;;;;;;11.22;77.70;98188.72;4173324;28;20649;-86
2023/10/17 10:07:26;;;;;;;13.63;8.80;;;;;;;11.19;78.69;98186.31;4173608;28;20669;-87
2023/10/17 10:09:37;;;;;;;10.30;7.77;;;;;;;11.20;78.00;98195.84;4189260;28;20624;-87
2023/10/17 10:11:58;;;;;;;11.00;8.80;;;;;;;11.26;78.94;98189.34;4206390;28;21300;-88
2023/10/17 10:14:03;;;;;;;11.67;8.43;;;;;;;11.28;78.11;98196.13;4174612;28;20710;-87
2023/10/17 10:16:07;;;;;;;14.13;9.37;;;;;;;11.30;79.09;98199.47;4171550;28;21030;-87
2023/10/17 10:18:12;;;;;;;13.33;9.30;;;;;;;11.33;77.36;98196.63;4171994;28;21169;-88
2023/10/17 10:20:16;;;;;;;11.60;9.10;;;;;;;11.44;78.02;98202.78;4178603;28;20713;-88
2023/10/17 10:22:18;;;;;;;14.50;10.00;;;;;;;11.47;78.25;98193.91;4206758;28;20641;-88
2023/10/17 10:24:26;;;;;;;13.40;9.40;;;;;;;11.43;79.04;98197.69;4179145;28;20635;-87
2023/10/17 10:26:30;;;;;;;12.53;9.53;;;;;;;11.50;78.23;98207.63;4175237;28;20777;-87
2023/10/17 10:28:34;;;;;;;15.13;9.87;;;;;;;11.60;77.68;98210.41;4175497;28;20652;-87
2023/10/17 10:30:43;;;;;;;14.17;9.77;;;;;;;11.67;77.54;98211.66;4156632;28;21316;-88
2023/10/17 10:32:46;;;;;;;11.20;8.87;;;;;;;11.75;78.55;98202.31;4176154;28;20628;-86
2023/10/17 10:34:50;;;;;;;12.63;10.03;;;;;;;11.81;78.42;98197.47;4173727;28;20662;-85
2023/10/17 10:36:54;;;;;;;13.53;10.57;;;;;;;11.89;77.85;98199.53;4173576;28;20686;-85
2023/10/17 10:39:12;;;;;;;14.53;10.50;;;;;;;11.96;76.68;98196.38;4175839;28;20631;-85
2023/10/17 10:41:17;;;;;;;13.63;10.27;;;;;;;11.99;78.18;98192.72;4177005;28;20719;-85
2023/10/17 10:43:22;;;;;;;14.80;10.80;;;;;;;12.01;78.15;98194.28;4175727;28;20616;-85
2023/10/17 10:45:31;;;;;;;14.80;11.10;;;;;;;11.96;77.17;98188.53;4161026;28;20633;-85
2023/10/17 10:47:35;;;;;;;13.63;11.27;;;;;;;11.99;76.17;98192.72;4176829;28;20636;-85
2023/10/17 10:49:40;;;;;;;14.43;10.90;;;;;;;12.04;76.97;98188.00;4177671;28;20643;-86
2023/10/17 10:51:48;;;;;;;13.93;10.33;;;;;;;12.11;77.92;98192.66;4172638;28;20712;-86
2023/10/17 10:53:56;;;;;;;14.70;10.83;;;;;;;12.19;77.72;98192.94;4207209;28;20630;-86
2023/10/17 10:56:00;;;;;;;14.83;11.00;;;;;;;12.30;76.90;98193.00;4175119;28;21296;-86
2023/10/17 10:58:03;;;;;;;15.70;10.70;;;;;;;12.29;77.71;98189.53;4178085;28;20629;-86
2023/10/17 11:00:11;;;;;;;15.00;11.00;;;;;;;12.33;77.71;98193.59;4177385;28;21277;-86
2023/10/17 11:02:14;;;;;;;13.83;10.27;;;;;;;12.33;76.81;98188.38;4173954;28;20635;-86
2023/10/17 11:04:18;;;;;;;14.90;11.37;;;;;;;12.31;76.88;98173.72;4176652;28;20627;-86
2023/10/17 11:06:23;;;;;;;13.77;10.37;;;;;;;12.23;76.80;98176.09;4184518;28;20663;-86
2023/10/17 11:08:36;;;;;;;15.33;11.37;;;;;;;12.17;76.24;98171.31;4180392;28;20637;-86
2023/10/17 11:10:39;;;;;;;17.67;11.10;;;;;;;12.16;77.15;98164.41;4190239;28;20628;-85
2023/10/17 11:12:52;;;;;;;14.70;11.90;;;;;;;12.06;78.03;98159.97;4171870;28;21436;-85
2023/10/17 11:15:08;;;;;;;14.57;10.70;;;;;;;12.13;77.24;98169.03;4178249;28;20639;-85
2023/10/17 11:17:13;;;;;;;14.63;10.10;;;;;;;12.05;77.57;98160.91;4156399;28;20678;-85
2023/10/17 11:19:21;;;;;;;13.30;10.53;;;;;;;12.07;76.81;98167.72;4179650;28;20754;-85